Terminal Aerodrome Forecast
Issued by NWS Cleveland, OH

Home | Current Version | Previous Version | Text Only | Print | Product List | Glossary Off
Versions: 1 2 3 4 5 6 7 8 9 10 11 12 13 14

000
FTUS41 KCLE 031735
TAFMFD
TAF
KMFD 031735Z 0318/0418 26012G22KT P6SM VCSH BKN028 OVC050
     FM032000 26012G20KT P6SM SCT035 BKN045
     FM040000 26005KT P6SM SCT040 BKN200
     FM041500 25010KT P6SM SCT050=

USA.gov is the U.S. government's official web portal to all federal, state and local government web resources and services.